Terminal Aerodrome Forecast
Issued by NWS

Home | Current Version | Previous Version | Text Only | Print | Product List | Glossary On
Versions: 1 2 3 4 5 6 7 8 9 10 11 12 13 14 15 16 17 18 19 20 21 22 23 24 25 26 27 28 29 30 31 32 33
000
FTAK31 PANC 271740
TAFADQ
TAF
PADQ 271740Z 2718/2818 26006KT P6SM SCT015 BKN200
     FM272100 12008KT P6SM BKN060
     FM280000 10008KT P6SM VCSH SCT015 OVC035
     FM280300 10010KT 3SM -RA BR OVC012
     FM280600 08010KT 3SM -RA BR BKN005 OVC012
     FM281600 VRB03KT 6SM -RA BR OVC005=

USA.gov is the U.S. government's official web portal to all federal, state and local government web resources and services.